Time;durP1;ratioP1;P1;durP2;ratioP2;P2;SDS_P1;SDS_P2;PMS_P1;PMS_P2;Temp;Humidity;BMP_temperature;BMP_pressure;BME280_temperature;BME280_humidity;BME280_pressure;Samples;Min_cycle;Max_cycle;Signal;HPM_P1;HPM_P2
2021/07/26 00:00:56;;;;;;;34.83;18.83;;;18.60;99.90;;;;;;5054200;28;20043;-85
2021/07/26 00:03:28;;;;;;;;;;;18.60;99.90;;;;;;5055661;28;20924;-88
2021/07/26 00:05:58;;;;;;;27.25;15.27;;;18.60;99.90;;;;;;5071312;28;19931;-86
2021/07/26 00:08:35;;;;;;;33.22;16.77;;;18.50;99.90;;;;;;5068643;28;20051;-87
2021/07/26 00:11:09;;;;;;;36.47;19.40;;;18.60;99.90;;;;;;5076083;28;20052;-87
2021/07/26 00:13:38;;;;;;;31.33;18.27;;;18.70;99.90;;;;;;5098223;28;20056;-87
2021/07/26 00:16:10;;;;;;;36.63;17.03;;;18.50;99.90;;;;;;5069906;28;20057;-86
2021/07/26 00:18:41;;;;;;;34.60;17.35;;;18.50;99.90;;;;;;5055995;28;20224;-89
2021/07/26 00:21:22;;;;;;;40.28;18.90;;;18.50;99.90;;;;;;5082574;28;20043;-88
2021/07/26 00:23:54;;;;;;;33.95;17.60;;;18.50;99.90;;;;;;5038353;28;20059;-85
2021/07/26 00:26:25;;;;;;;35.83;16.63;;;18.40;99.90;;;;;;5051957;28;20040;-87
2021/07/26 00:28:55;;;;;;;29.45;16.05;;;18.50;99.90;;;;;;5052918;28;20053;-87
2021/07/26 00:31:24;;;;;;;30.93;17.30;;;18.40;99.90;;;;;;5032874;28;20048;-87
2021/07/26 00:34:20;;;;;;;34.50;17.30;;;18.40;99.90;;;;;;5054725;28;20044;-88
2021/07/26 00:36:56;;;;;;;35.60;19.10;;;18.40;99.90;;;;;;5091231;28;20048;-88
2021/07/26 00:39:31;;;;;;;39.17;20.85;;;18.40;99.90;;;;;;5070942;28;20051;-87
2021/07/26 00:42:00;;;;;;;38.67;17.80;;;18.40;99.90;;;;;;5034794;28;20050;-88
2021/07/26 00:44:30;;;;;;;34.47;16.67;;;18.40;99.90;;;;;;5084320;28;20075;-88
2021/07/26 00:47:00;;;;;;;33.97;17.13;;;18.40;99.90;;;;;;5066655;28;20036;-87
2021/07/26 00:49:29;;;;;;;38.08;18.33;;;18.40;99.90;;;;;;5071405;28;20057;-90
2021/07/26 00:52:00;;;;;;;34.15;19.30;;;18.40;99.90;;;;;;5046772;28;20060;-89
2021/07/26 00:54:37;;;;;;;34.83;18.92;;;18.40;99.90;;;;;;5067965;28;20044;-87
2021/07/26 01:00:13;;;;;;;37.72;17.35;;;18.30;99.90;;;;;;5046794;28;20056;-86
2021/07/26 01:02:41;;;;;;;47.83;19.42;;;18.40;99.90;;;;;;5069279;28;20047;-88
2021/07/26 01:05:12;;;;;;;35.67;16.98;;;18.40;99.90;;;;;;5069402;28;20048;-87
2021/07/26 01:07:40;;;;;;;32.97;17.85;;;18.40;99.90;;;;;;5058665;28;20048;-90
2021/07/26 01:10:18;;;;;;;33.05;17.85;;;18.40;99.90;;;;;;5053541;28;20040;-87
2021/07/26 01:12:46;;;;;;;34.30;18.30;;;18.40;99.90;;;;;;5081945;28;20045;-90
2021/07/26 01:15:14;;;;;;;36.30;18.88;;;18.40;99.90;;;;;;5074710;28;20045;-89
2021/07/26 01:18:18;;;;;;;40.50;19.60;;;18.40;99.90;;;;;;5055315;28;20036;-88
2021/07/26 01:20:52;;;;;;;33.05;17.38;;;18.40;99.90;;;;;;5067570;28;20058;-90
2021/07/26 01:23:21;;;;;;;40.72;19.63;;;18.30;99.90;;;;;;5072704;28;20048;-88
2021/07/26 01:25:50;;;;;;;32.33;18.20;;;18.30;99.90;;;;;;5056348;28;20075;-90
2021/07/26 01:28:21;;;;;;;43.88;21.77;;;18.30;99.90;;;;;;5072490;28;20045;-88
2021/07/26 01:30:49;;;;;;;40.55;19.58;;;18.30;99.90;;;;;;5076795;28;20059;-89
2021/07/26 01:33:21;;;;;;;37.13;20.08;;;18.30;99.90;;;;;;5070472;28;20051;-87
2021/07/26 01:35:52;;;;;;;38.85;20.02;;;18.30;99.90;;;;;;5088255;28;20044;-88
2021/07/26 01:38:23;;;;;;;41.40;19.60;;;18.30;99.90;;;;;;5070490;28;20403;-88
2021/07/26 01:40:57;;;;;;;38.00;19.95;;;18.30;99.90;;;;;;5048955;28;20041;-87
2021/07/26 01:43:32;;;;;;;34.08;18.85;;;18.20;99.90;;;;;;5060585;28;20052;-88
2021/07/26 01:46:06;;;;;;;41.33;21.10;;;18.20;99.90;;;;;;5071084;28;20037;-89
2021/07/26 01:48:46;;;;;;;35.33;19.85;;;18.20;99.90;;;;;;5061490;28;20050;-91
2021/07/26 01:51:23;;;;;;;36.03;20.60;;;18.20;99.90;;;;;;5074057;28;20056;-87
2021/07/26 01:53:52;;;;;;;44.30;18.88;;;18.10;99.90;;;;;;5074391;28;20051;-89
2021/07/26 01:56:20;;;;;;;33.45;19.90;;;18.10;99.90;;;;;;5091629;28;20045;-85
2021/07/26 01:58:49;;;;;;;38.65;18.95;;;18.10;99.90;;;;;;5074649;28;20040;-90
2021/07/26 02:01:17;;;;;;;43.92;20.65;;;18.10;99.90;;;;;;5092138;28;20047;-88
2021/07/26 02:03:46;;;;;;;42.33;21.38;;;18.10;99.90;;;;;;5073770;28;20044;-88
2021/07/26 02:06:15;;;;;;;37.33;19.83;;;18.10;99.90;;;;;;5076967;28;20047;-87
2021/07/26 02:08:48;;;;;;;42.03;20.90;;;18.10;99.90;;;;;;5080158;28;20045;-85
2021/07/26 02:11:21;;;;;;;37.42;21.08;;;18.10;99.90;;;;;;5055823;28;20055;-88
2021/07/26 02:13:52;;;;;;;41.78;20.27;;;18.10;99.90;;;;;;5073791;28;20025;-88
2021/07/26 02:16:21;;;;;;;47.78;22.75;;;18.10;99.90;;;;;;5085555;28;20037;-87
2021/07/26 02:18:49;;;;;;;45.58;21.23;;;18.10;99.90;;;;;;5078399;28;20049;-87
2021/07/26 02:21:18;;;;;;;40.53;20.48;;;18.10;99.90;;;;;;5085841;28;20057;-87
2021/07/26 02:23:49;;;;;;;38.13;22.05;;;18.10;99.90;;;;;;5067600;28;20037;-88
2021/07/26 02:26:18;;;;;;;44.28;20.77;;;18.10;99.90;;;;;;5058113;28;20059;-88
2021/07/26 02:28:47;;;;;;;44.05;21.27;;;18.10;99.90;;;;;;5074369;28;20039;-88
2021/07/26 02:31:15;;;;;;;39.05;20.75;;;18.10;99.90;;;;;;5058775;28;20037;-90
2021/07/26 02:33:44;;;;;;;40.28;20.80;;;18.10;99.90;;;;;;5056112;28;20056;-88
2021/07/26 02:36:13;;;;;;;44.45;20.80;;;18.10;99.90;;;;;;5055041;28;20050;-90
2021/07/26 02:38:41;;;;;;;41.00;23.25;;;18.10;99.90;;;;;;5053136;28;20063;-88
2021/07/26 02:41:14;;;;;;;51.22;22.73;;;18.20;99.90;;;;;;5085871;28;20032;-90
2021/07/26 02:43:42;;;;;;;47.63;21.45;;;18.10;99.90;;;;;;5056738;28;20044;-89
2021/07/26 02:46:14;;;;;;;42.00;23.20;;;18.10;99.90;;;;;;5072306;28;20044;-90
2021/07/26 02:48:42;;;;;;;44.83;23.20;;;18.20;99.90;;;;;;5071697;28;20040;-89
2021/07/26 02:51:14;;;;;;;49.60;22.83;;;18.20;99.90;;;;;;5073078;28;20041;-87
2021/07/26 02:53:42;;;;;;;40.83;21.17;;;18.20;99.90;;;;;;5071521;28;20037;-87
2021/07/26 02:56:13;;;;;;;48.50;24.42;;;18.20;99.90;;;;;;5087271;28;20040;-90
2021/07/26 02:58:42;;;;;;;53.30;24.20;;;18.10;99.90;;;;;;5054910;28;20409;-89
2021/07/26 03:01:12;;;;;;;52.67;22.88;;;18.20;99.90;;;;;;5054167;28;20057;-89
2021/07/26 03:03:40;;;;;;;44.30;24.80;;;18.10;99.90;;;;;;5089556;28;20059;-90
2021/07/26 03:06:19;;;;;;;45.97;24.08;;;18.10;99.90;;;;;;5071306;28;20052;-89
2021/07/26 03:08:48;;;;;;;46.85;24.67;;;18.10;99.90;;;;;;5089328;28;20040;-89
2021/07/26 03:11:19;;;;;;;41.90;25.02;;;18.10;99.90;;;;;;5090849;28;20040;-87
2021/07/26 03:13:49;;;;;;;52.97;23.85;;;18.10;99.90;;;;;;5023445;28;20062;-89
2021/07/26 03:16:17;;;;;;;56.85;24.90;;;18.10;99.90;;;;;;5069448;28;20048;-88
2021/07/26 03:18:45;;;;;;;49.50;26.40;;;18.10;99.90;;;;;;5087911;28;20044;-87
2021/07/26 03:21:14;;;;;;;51.38;25.85;;;18.10;99.90;;;;;;5072941;28;20036;-90
2021/07/26 03:23:42;;;;;;;53.30;25.67;;;18.10;99.90;;;;;;5038953;28;20058;-88
2021/07/26 03:26:10;;;;;;;52.53;26.27;;;18.10;99.90;;;;;;5085353;28;20041;-90
2021/07/26 03:28:39;;;;;;;52.38;25.88;;;18.10;99.90;;;;;;5087152;28;20039;-87
2021/07/26 03:31:07;;;;;;;46.22;27.00;;;18.10;99.90;;;;;;5062456;28;20040;-89
2021/07/26 03:33:35;;;;;;;46.75;23.60;;;18.10;99.90;;;;;;5067232;28;20048;-88
2021/07/26 03:36:03;;;;;;;53.22;26.35;;;18.10;99.90;;;;;;5043274;28;20055;-90
2021/07/26 03:38:32;;;;;;;51.30;26.73;;;18.10;99.90;;;;;;5064551;28;20044;-89
2021/07/26 03:41:00;;;;;;;50.97;26.70;;;18.10;99.90;;;;;;5070635;28;20049;-87
2021/07/26 03:43:30;;;;;;;52.30;26.98;;;18.10;99.90;;;;;;5071816;28;20040;-89
2021/07/26 03:46:01;;;;;;;62.03;26.60;;;18.10;99.90;;;;;;5090862;28;20048;-89
2021/07/26 03:48:28;;;;;;;51.60;26.58;;;18.10;99.90;;;;;;5057607;28;20058;-88
2021/07/26 03:50:59;;;;;;;54.70;28.07;;;18.10;99.90;;;;;;5072909;28;20051;-91
2021/07/26 03:53:28;;;;;;;55.53;27.83;;;18.10;99.90;;;;;;5040511;28;20302;-86
2021/07/26 03:56:17;;;;;;;49.28;25.42;;;18.00;99.90;;;;;;5074549;28;20040;-89
2021/07/26 03:58:46;;;;;;;55.85;29.52;;;18.00;99.90;;;;;;5084488;28;20056;-88
2021/07/26 04:01:18;;;;;;;60.88;28.45;;;18.00;99.90;;;;;;5049540;28;20036;-86
2021/07/26 04:03:47;;;;;;;50.35;26.45;;;18.00;99.90;;;;;;5046625;28;20067;-87
2021/07/26 04:06:20;;;;;;;54.88;28.52;;;18.00;99.90;;;;;;5075074;28;20049;-87
2021/07/26 04:08:49;;;;;;;48.92;28.88;;;18.00;99.90;;;;;;5069788;28;20403;-89
2021/07/26 04:11:30;;;;;;;75.72;29.55;;;18.00;99.90;;;;;;5051073;28;20048;-89
2021/07/26 04:14:02;;;;;;;50.30;27.37;;;18.00;99.90;;;;;;5085040;28;20048;-90
2021/07/26 04:16:30;;;;;;;53.58;27.20;;;18.00;99.90;;;;;;5085663;28;20056;-90
2021/07/26 04:19:00;;;;;;;53.75;27.42;;;18.00;99.90;;;;;;5066331;28;20063;-90
2021/07/26 04:21:33;;;;;;;60.13;29.98;;;18.00;99.90;;;;;;5076210;28;20052;-90
2021/07/26 04:24:03;;;;;;;55.55;28.63;;;18.00;99.90;;;;;;5083276;28;20036;-87
2021/07/26 04:26:32;;;;;;;68.70;31.17;;;18.00;99.90;;;;;;5040443;28;20060;-91
2021/07/26 04:29:20;;;;;;;79.50;32.08;;;18.00;99.90;;;;;;5070194;28;20304;-90
2021/07/26 04:31:50;;;;;;;53.50;27.60;;;18.00;99.90;;;;;;5055266;28;20059;-87
2021/07/26 04:34:19;;;;;;;62.45;29.80;;;18.00;99.90;;;;;;5086287;28;20289;-90
2021/07/26 04:36:47;;;;;;;54.55;29.75;;;18.00;99.90;;;;;;5067678;28;20032;-88
2021/07/26 04:39:17;;;;;;;61.60;30.50;;;18.00;99.90;;;;;;5037419;28;20055;-89
2021/07/26 04:41:47;;;;;;;;;;;18.00;99.90;;;;;;5057481;28;20051;-87
2021/07/26 04:44:14;;;;;;;65.22;29.98;;;18.00;99.90;;;;;;5073200;28;19910;-88
2021/07/26 04:46:42;;;;;;;60.58;31.27;;;17.90;99.90;;;;;;5071293;28;20066;-89
2021/07/26 04:49:11;;;;;;;62.60;31.70;;;17.90;99.90;;;;;;5071097;28;20045;-89
2021/07/26 04:51:40;;;;;;;68.95;30.95;;;18.80;99.90;;;;;;5052011;28;20055;-89
2021/07/26 04:54:08;;;;;;;51.38;26.77;;;17.90;99.90;;;;;;5065852;28;20060;-91
2021/07/26 04:56:36;;;;;;;65.25;32.60;;;17.90;99.90;;;;;;5087581;28;20049;-87
2021/07/26 04:59:22;;;;;;;56.17;28.48;;;17.90;99.90;;;;;;5058667;28;20060;-88
2021/07/26 05:01:54;;;;;;;59.67;28.92;;;17.90;99.90;;;;;;5064348;28;20059;-90
2021/07/26 05:04:23;;;;;;;55.90;31.63;;;17.90;99.90;;;;;;5062675;28;20045;-89
2021/07/26 05:06:51;;;;;;;59.20;30.13;;;17.90;99.90;;;;;;5072890;28;20052;-89
2021/07/26 05:09:21;;;;;;;55.03;28.50;;;17.90;99.90;;;;;;5064781;28;20052;-91
2021/07/26 05:11:50;;;;;;;59.85;31.85;;;17.90;99.90;;;;;;5049926;28;20060;-89
2021/07/26 05:14:20;;;;;;;59.38;31.17;;;17.90;99.90;;;;;;5072386;28;20078;-89
2021/07/26 05:16:49;;;;;;;54.28;29.63;;;17.90;99.90;;;;;;5049319;28;20045;-89
2021/07/26 05:19:17;;;;;;;68.40;31.08;;;17.90;99.90;;;;;;5084593;28;20487;-88
2021/07/26 05:21:47;;;;;;;78.63;33.00;;;17.90;99.90;;;;;;5077538;28;20048;-87
2021/07/26 05:24:20;;;;;;;73.40;33.08;;;18.00;99.90;;;;;;5084107;28;20048;-89
2021/07/26 05:27:03;;;;;;;65.95;29.02;;;18.00;99.90;;;;;;5084289;28;20040;-89
2021/07/26 05:29:32;;;;;;;63.17;33.78;;;18.00;99.90;;;;;;5049917;28;20084;-88
2021/07/26 05:32:05;;;;;;;;;;;18.00;99.90;;;;;;5058716;28;20044;-89
2021/07/26 05:34:36;;;;;;;52.20;29.08;;;18.00;99.90;;;;;;5085632;28;19920;-87
2021/07/26 05:37:08;;;;;;;61.20;30.58;;;18.00;99.90;;;;;;5090290;28;20066;-88
2021/07/26 05:39:38;;;;;;;61.30;31.15;;;18.00;99.90;;;;;;5067690;28;20047;-87
2021/07/26 05:42:12;;;;;;;52.78;31.67;;;18.00;99.90;;;;;;5068516;28;20135;-88
2021/07/26 05:44:42;;;;;;;70.32;29.23;;;18.00;99.90;;;;;;5050865;28;20050;-90
2021/07/26 05:47:12;;;;;;;59.45;29.30;;;18.00;99.90;;;;;;5067693;28;20067;-89
2021/07/26 05:49:43;;;;;;;52.53;27.30;;;18.00;99.90;;;;;;5083976;28;20049;-87
2021/07/26 05:52:11;;;;;;;57.60;27.83;;;18.00;99.90;;;;;;5066913;28;20052;-87
2021/07/26 05:54:43;;;;;;;50.15;28.33;;;18.00;99.90;;;;;;5051929;28;20052;-88
2021/07/26 05:57:15;;;;;;;48.15;29.13;;;18.00;99.90;;;;;;5067328;28;20043;-88
2021/07/26 05:59:44;;;;;;;63.03;31.02;;;18.10;99.90;;;;;;5062812;28;20049;-88
2021/07/26 06:02:20;;;;;;;61.15;29.70;;;18.10;99.90;;;;;;5081061;28;20051;-88
2021/07/26 06:04:51;;;;;;;;;;;18.10;99.90;;;;;;5072554;28;20071;-87
2021/07/26 06:07:20;;;;;;;42.67;25.67;;;18.10;99.90;;;;;;5063280;28;20303;-87
2021/07/26 06:09:51;;;;;;;55.17;26.52;;;18.10;99.90;;;;;;5045262;28;20821;-88
2021/07/26 06:12:23;;;;;;;54.55;26.40;;;18.10;99.90;;;;;;5032106;28;20052;-87
2021/07/26 06:14:58;;;;;;;47.53;27.60;;;18.20;99.90;;;;;;5058822;28;20055;-87
2021/07/26 06:17:26;;;;;;;50.83;26.83;;;18.20;99.90;;;;;;5082820;28;20037;-89
2021/07/26 06:19:55;;;;;;;49.83;26.35;;;18.20;99.90;;;;;;5046578;28;20045;-88
2021/07/26 06:22:23;;;;;;;64.65;31.63;;;18.20;99.90;;;;;;5063135;28;20041;-86
2021/07/26 06:24:56;;;;;;;56.42;28.38;;;18.30;99.90;;;;;;5052964;28;20048;-88
2021/07/26 06:27:27;;;;;;;64.78;29.45;;;18.30;99.90;;;;;;5043949;28;20048;-87
2021/07/26 06:29:55;;;;;;;57.65;25.52;;;18.30;99.90;;;;;;5029242;28;20056;-89
2021/07/26 06:32:25;;;;;;;54.72;28.23;;;18.30;99.90;;;;;;5047477;28;20048;-88
2021/07/26 06:34:55;;;;;;;49.88;26.38;;;18.30;99.90;;;;;;5062093;28;20051;-89
2021/07/26 06:37:26;;;;;;;46.20;24.90;;;18.30;99.90;;;;;;5060743;28;20052;-89
2021/07/26 06:39:57;;;;;;;56.70;26.70;;;18.30;99.90;;;;;;5052206;28;20044;-88
2021/07/26 06:42:27;;;;;;;53.03;25.48;;;18.30;99.90;;;;;;5043429;28;20063;-88
2021/07/26 06:44:57;;;;;;;48.95;26.58;;;19.30;99.90;;;;;;5076297;28;20044;-88
2021/07/26 06:47:25;;;;;;;59.63;28.00;;;17.80;99.90;;;;;;5059649;28;20143;-89
2021/07/26 06:49:55;;;;;;;55.25;29.08;;;18.40;99.90;;;;;;5029027;28;20055;-91
2021/07/26 06:52:23;;;;;;;55.85;26.48;;;18.40;99.90;;;;;;5033091;28;20124;-89
2021/07/26 06:54:52;;;;;;;48.70;24.25;;;18.50;99.90;;;;;;5053035;28;20051;-88
2021/07/26 06:57:20;;;;;;;43.90;24.95;;;18.50;99.90;;;;;;5056381;28;20048;-88
2021/07/26 06:59:50;;;;;;;50.80;27.52;;;18.60;99.90;;;;;;5077093;28;20060;-87
2021/07/26 07:02:21;;;;;;;51.67;27.50;;;18.60;99.90;;;;;;5043274;28;20041;-88
2021/07/26 07:04:50;;;;;;;63.17;39.70;;;18.60;99.90;;;;;;5070904;28;20068;-89
2021/07/26 07:07:24;;;;;;;65.13;31.92;;;18.60;99.90;;;;;;5047812;28;20044;-89
2021/07/26 07:09:54;;;;;;;75.97;34.47;;;18.10;99.90;;;;;;5037001;28;20055;-89
2021/07/26 07:12:22;;;;;;;57.53;31.48;;;18.60;99.90;;;;;;5059575;28;20041;-88
2021/07/26 07:14:54;;;;;;;62.20;32.08;;;18.60;99.90;;;;;;5043626;28;20749;-87
2021/07/26 07:17:26;;;;;;;55.15;31.45;;;18.60;99.90;;;;;;5054496;28;20049;-89
2021/07/26 07:19:55;;;;;;;58.95;32.75;;;18.60;99.90;;;;;;5071759;28;20052;-90
2021/07/26 07:22:24;;;;;;;60.75;30.33;;;18.60;99.90;;;;;;5077166;28;20312;-89
2021/07/26 07:24:53;;;;;;;50.10;28.52;;;18.60;99.90;;;;;;5022886;28;20055;-89
2021/07/26 07:27:22;;;;;;;58.05;28.17;;;18.60;99.90;;;;;;5058282;28;20064;-88
2021/07/26 07:30:11;;;;;;;55.95;29.27;;;18.70;99.90;;;;;;5018352;28;20075;-89
2021/07/26 07:32:39;;;;;;;54.33;27.85;;;18.70;99.90;;;;;;5069666;28;20051;-88
2021/07/26 07:35:08;;;;;;;51.35;26.48;;;18.80;99.90;;;;;;5074343;28;20055;-89
2021/07/26 07:37:38;;;;;;;52.83;28.55;;;19.50;99.90;;;;;;5039383;28;20060;-88
2021/07/26 07:40:07;;;;;;;54.70;28.23;;;18.90;99.90;;;;;;5039769;28;20064;-89
2021/07/26 07:42:36;;;;;;;44.88;24.35;;;19.00;99.90;;;;;;5069503;28;20910;-89
2021/07/26 07:45:18;;;;;;;47.30;25.05;;;19.10;99.90;;;;;;5061475;28;20067;-89
2021/07/26 07:47:57;;;;;;;48.17;25.70;;;19.10;99.90;;;;;;5058212;28;20496;-89
2021/07/26 07:50:32;;;;;;;50.58;26.25;;;18.10;99.90;;;;;;5052268;28;20048;-88
2021/07/26 07:53:04;;;;;;;51.58;27.92;;;19.90;99.90;;;;;;5061095;28;20056;-89
2021/07/26 07:55:36;;;;;;;50.13;26.55;;;19.60;99.90;;;;;;5043642;28;20594;-89
2021/07/26 07:58:10;;;;;;;54.63;25.67;;;19.60;99.90;;;;;;5056137;28;20049;-88
2021/07/26 08:00:39;;;;;;;43.97;25.10;;;19.60;99.90;;;;;;5045636;28;20053;-89
2021/07/26 08:03:17;;;;;;;46.17;24.38;;;19.70;99.90;;;;;;5041880;28;20060;-88
2021/07/26 08:06:05;;;;;;;44.53;24.77;;;19.80;99.90;;;;;;5010188;28;20053;-88
2021/07/26 08:08:41;;;;;;;39.65;23.52;;;19.80;99.90;;;;;;5048423;28;20052;-88
2021/07/26 08:11:13;;;;;;;48.38;24.88;;;19.80;99.90;;;;;;5072078;28;20056;-88
2021/07/26 08:13:45;;;;;;;50.10;26.70;;;19.90;99.90;;;;;;5053255;28;20660;-88
2021/07/26 08:16:26;;;;;;;43.65;22.80;;;20.00;99.90;;;;;;5073425;28;20055;-88
2021/07/26 08:19:04;;;;;;;46.70;25.75;;;20.10;99.90;;;;;;5057318;28;20053;-88
2021/07/26 08:21:43;;;;;;;41.47;26.10;;;20.20;99.90;;;;;;5073653;28;20557;-88
2021/07/26 08:24:14;;;;;;;37.05;22.50;;;20.30;99.90;;;;;;5061533;28;20056;-88
2021/07/26 08:26:44;;;;;;;44.65;25.33;;;20.40;99.90;;;;;;5052851;28;20049;-88
2021/07/26 08:29:17;;;;;;;37.63;22.13;;;20.40;99.90;;;;;;5040633;28;20056;-88
2021/07/26 08:31:52;;;;;;;41.47;22.63;;;20.60;99.90;;;;;;5055403;28;20056;-88
2021/07/26 08:34:24;;;;;;;46.60;24.20;;;20.60;99.90;;;;;;5040915;28;20059;-89
2021/07/26 08:36:55;;;;;;;42.17;23.33;;;20.70;99.90;;;;;;5059925;28;20414;-90
2021/07/26 08:39:33;;;;;;;36.63;21.02;;;20.70;99.90;;;;;;5062251;28;20048;-89
2021/07/26 08:42:13;;;;;;;40.25;22.35;;;20.70;99.90;;;;;;5043955;28;20048;-89
2021/07/26 08:44:47;;;;;;;41.10;24.08;;;20.80;99.90;;;;;;5060035;28;20045;-89
2021/07/26 08:47:20;;;;;;;36.90;22.15;;;20.90;99.90;;;;;;5027349;28;20044;-89
2021/07/26 08:49:57;;;;;;;44.67;23.77;;;20.90;99.90;;;;;;5036016;28;20045;-88
2021/07/26 08:52:45;;;;;;;38.10;19.58;;;21.00;99.90;;;;;;5061363;28;20171;-89
2021/07/26 08:55:18;;;;;;;41.97;20.02;;;21.10;99.90;;;;;;5047510;28;20056;-89
2021/07/26 08:57:48;;;;;;;38.13;20.05;;;21.20;99.90;;;;;;5046607;28;20045;-88
2021/07/26 09:00:23;;;;;;;37.22;20.65;;;21.30;99.90;;;;;;5054639;28;20510;-89
2021/07/26 09:02:56;;;;;;;41.80;21.25;;;21.40;99.90;;;;;;5028387;28;20086;-89
2021/07/26 09:05:27;;;;;;;39.72;19.88;;;21.60;99.90;;;;;;5059505;28;20040;-89
2021/07/26 09:08:03;;;;;;;47.67;24.07;;;21.70;99.90;;;;;;5027094;28;20048;-89
2021/07/26 09:10:36;;;;;;;32.67;18.10;;;22.00;99.90;;;;;;5070448;28;20048;-89
2021/07/26 09:13:08;;;;;;;43.03;21.23;;;21.90;99.90;;;;;;5064004;28;20476;-89
2021/07/26 09:15:44;;;;;;;39.83;19.50;;;22.00;99.90;;;;;;5039719;28;20527;-90
2021/07/26 09:18:17;;;;;;;45.38;20.85;;;22.00;99.90;;;;;;5032375;28;20498;-89
2021/07/26 09:20:51;;;;;;;36.40;19.58;;;22.10;99.90;;;;;;5059136;28;20051;-90
2021/07/26 09:23:21;;;;;;;40.28;18.80;;;22.20;99.90;;;;;;5063323;28;20032;-90
2021/07/26 09:26:03;;;;;;;39.63;19.73;;;22.50;99.90;;;;;;5027009;28;20120;-90
2021/07/26 09:28:38;;;;;;;42.88;20.55;;;22.40;99.90;;;;;;5081207;28;20033;-90
2021/07/26 09:31:08;;;;;;;34.75;20.40;;;23.30;99.90;;;;;;5065841;28;20348;-90
2021/07/26 09:33:42;;;;;;;33.15;19.67;;;22.40;99.90;;;;;;5040725;28;20059;-91
2021/07/26 09:36:21;;;;;;;43.28;20.83;;;22.70;99.90;;;;;;5070589;28;20527;-90
2021/07/26 09:39:02;;;;;;;44.67;19.35;;;22.70;99.90;;;;;;5034307;28;20037;-90
2021/07/26 09:41:42;;;;;;;46.72;20.02;;;22.70;99.90;;;;;;5020990;28;20044;-90
2021/07/26 09:44:14;;;;;;;25.70;15.00;;;22.80;99.90;;;;;;5083027;28;20051;-90
2021/07/26 09:46:45;;;;;;;30.92;17.75;;;22.20;99.90;;;;;;5044321;28;20048;-90
2021/07/26 09:49:17;;;;;;;32.72;16.48;;;23.00;99.90;;;;;;5045836;28;20053;-90
2021/07/26 09:52:08;;;;;;;32.15;14.65;;;23.10;99.90;;;;;;5029491;28;20040;-90
2021/07/26 09:54:50;;;;;;;27.83;14.52;;;23.10;99.90;;;;;;5030932;28;20439;-90
2021/07/26 09:57:20;;;;;;;33.85;14.40;;;23.20;99.90;;;;;;5044817;28;20044;-90
2021/07/26 09:59:54;;;;;;;30.20;14.25;;;23.20;99.90;;;;;;5063738;28;20056;-90
2021/07/26 10:02:36;;;;;;;35.83;15.82;;;23.30;99.90;;;;;;5025747;28;20045;-89
2021/07/26 10:05:12;;;;;;;41.92;15.77;;;23.30;99.90;;;;;;5070359;28;20076;-91
2021/07/26 10:07:45;;;;;;;34.38;17.25;;;23.40;99.90;;;;;;5051858;28;20056;-91
2021/07/26 10:10:31;;;;;;;26.42;14.02;;;22.90;99.90;;;;;;5036617;28;20060;-90
2021/07/26 10:13:20;;;;;;;38.78;17.15;;;23.50;99.90;;;;;;5064757;28;20041;-91
2021/07/26 10:16:03;;;;;;;34.83;15.55;;;23.50;99.90;;;;;;5030550;28;20048;-89
2021/07/26 10:18:46;;;;;;;31.55;16.00;;;23.50;99.90;;;;;;5045722;28;20411;-89
2021/07/26 10:21:37;;;;;;;29.33;16.83;;;23.50;99.90;;;;;;5055419;28;20052;-90
2021/07/26 10:24:12;;;;;;;31.50;17.45;;;23.60;99.90;;;;;;5051119;28;20056;-91
2021/07/26 10:26:50;;;;;;;28.45;15.90;;;23.70;99.90;;;;;;5066407;28;20050;-89
2021/07/26 10:29:57;;;;;;;29.65;14.48;;;23.80;99.90;;;;;;5085486;28;20051;-90
2021/07/26 10:32:59;;;;;;;32.88;16.15;;;23.90;99.90;;;;;;5049469;28;20059;-90
2021/07/26 10:35:47;;;;;;;29.08;15.95;;;24.10;99.90;;;;;;5019657;28;20068;-89
2021/07/26 10:38:46;;;;;;;23.42;12.70;;;24.10;99.90;;;;;;5048142;28;20041;-89
2021/07/26 10:41:46;;;;;;;26.17;14.77;;;24.20;99.90;;;;;;5040917;28;20539;-90
2021/07/26 10:44:28;;;;;;;29.15;14.57;;;24.20;99.90;;;;;;5045060;28;20048;-91
2021/07/26 10:47:09;;;;;;;25.77;13.82;;;24.10;99.90;;;;;;5061588;28;20033;-90
2021/07/26 10:49:43;;;;;;;29.80;15.23;;;24.10;99.90;;;;;;5060339;28;20049;-90
2021/07/26 10:52:21;;;;;;;30.38;16.73;;;24.10;99.90;;;;;;5058369;28;20060;-91
2021/07/26 10:54:56;;;;;;;28.40;15.73;;;24.10;99.90;;;;;;5064246;28;20040;-88
2021/07/26 10:57:43;;;;;;;27.98;13.93;;;24.10;99.90;;;;;;5052640;28;20067;-91
2021/07/26 11:00:24;;;;;;;25.73;15.02;;;24.10;99.90;;;;;;5051018;28;20049;-90
2021/07/26 11:03:43;;;;;;;30.17;17.13;;;24.20;99.90;;;;;;5056615;28;20052;-91
2021/07/26 11:06:43;;;;;;;33.33;18.25;;;24.20;99.90;;;;;;5049798;28;20053;-88
2021/07/26 11:09:34;;;;;;;27.90;14.75;;;24.20;99.90;;;;;;5062560;28;20768;-89
2021/07/26 11:12:52;;;;;;;31.95;16.45;;;24.20;99.90;;;;;;5053713;28;20668;-90
2021/07/26 11:15:43;;;;;;;35.53;17.58;;;24.30;99.90;;;;;;5061553;28;20056;-92
2021/07/26 11:18:18;;;;;;;28.90;16.27;;;24.30;99.90;;;;;;5061929;28;20395;-89
2021/07/26 11:21:06;;;;;;;30.70;16.15;;;24.40;99.90;;;;;;5051301;28;20048;-91
2021/07/26 11:23:57;;;;;;;36.10;16.42;;;24.40;99.90;;;;;;5063812;28;20044;-91
2021/07/26 11:26:49;;;;;;;29.25;14.55;;;24.40;99.90;;;;;;5029810;28;20051;-90
2021/07/26 11:29:36;;;;;;;28.42;14.80;;;24.40;99.90;;;;;;5033390;28;20056;-90
2021/07/26 11:32:19;;;;;;;32.20;14.18;;;24.40;99.90;;;;;;5065844;28;20052;-89
2021/07/26 11:35:03;;;;;;;32.20;14.05;;;24.50;99.90;;;;;;5049366;28;20060;-91
2021/07/26 11:37:44;;;;;;;29.35;14.23;;;24.60;99.90;;;;;;5044009;28;20053;-90
2021/07/26 11:40:39;;;;;;;33.72;17.42;;;24.70;99.90;;;;;;5043933;28;20057;-89
2021/07/26 11:43:09;;;;;;;27.45;13.55;;;25.10;99.90;;;;;;5048262;28;20115;-89
2021/07/26 11:45:53;;;;;;;26.25;14.48;;;24.80;99.90;;;;;;5054939;28;20059;-89
2021/07/26 11:49:06;;;;;;;24.65;15.35;;;24.80;99.50;;;;;;5067789;28;20039;-89
2021/07/26 11:51:46;;;;;;;24.40;13.30;;;24.70;99.20;;;;;;5042078;28;20049;-90
2021/07/26 11:54:31;;;;;;;24.75;14.70;;;24.60;99.90;;;;;;5039999;28;20041;-91
2021/07/26 11:58:16;;;;;;;26.55;14.98;;;24.60;99.70;;;;;;5061601;28;20285;-89
2021/07/26 12:00:54;;;;;;;25.67;14.10;;;24.70;99.60;;;;;;5043964;28;20056;-88
2021/07/26 12:03:41;;;;;;;31.60;14.65;;;24.70;99.70;;;;;;5064528;28;20052;-90
2021/07/26 12:06:19;;;;;;;26.45;12.77;;;24.70;99.70;;;;;;5033706;28;20053;-91
2021/07/26 12:09:54;;;;;;;29.45;14.38;;;24.80;99.70;;;;;;5056054;28;20152;-88
2021/07/26 12:13:07;;;;;;;24.88;12.82;;;24.80;98.60;;;;;;5028383;28;20044;-91
2021/07/26 12:16:09;;;;;;;24.70;12.25;;;24.70;99.20;;;;;;5065071;28;20330;-90
2021/07/26 12:18:48;;;;;;;23.75;12.50;;;24.80;99.40;;;;;;5050273;28;20029;-92
2021/07/26 12:21:43;;;;;;;25.02;13.02;;;24.80;99.00;;;;;;5065015;28;20055;-90
2021/07/26 12:24:54;;;;;;;24.85;12.95;;;24.80;98.70;;;;;;5055862;28;20049;-93
2021/07/26 12:27:40;;;;;;;20.80;11.63;;;24.90;98.10;;;;;;5070059;28;20058;-92
2021/07/26 12:30:53;;;;;;;24.25;12.70;;;25.20;98.10;;;;;;5057991;28;20475;-91
2021/07/26 12:33:47;;;;;;;24.48;11.07;;;25.10;97.70;;;;;;5039363;28;20196;-92
2021/07/26 12:36:41;;;;;;;23.60;11.48;;;25.30;97.40;;;;;;5054356;28;20055;-93
2021/07/26 12:40:17;;;;;;;18.70;9.50;;;25.50;97.20;;;;;;5052447;28;20052;-91
2021/07/26 12:43:28;;;;;;;17.20;8.38;;;25.70;96.50;;;;;;5075446;28;20275;-90
2021/07/26 12:46:37;;;;;;;18.25;7.85;;;25.90;96.30;;;;;;5077574;28;20053;-89
2021/07/26 12:49:27;;;;;;;17.30;7.93;;;26.10;95.10;;;;;;5069025;28;20048;-85
2021/07/26 12:52:03;;;;;;;13.98;6.95;;;26.30;95.60;;;;;;5065416;28;20057;-86
2021/07/26 12:54:44;;;;;;;19.98;9.13;;;26.40;94.90;;;;;;5054725;28;20063;-89
2021/07/26 12:57:19;;;;;;;15.35;7.95;;;26.70;94.80;;;;;;5048005;28;20048;-88
2021/07/26 12:59:50;;;;;;;18.80;10.00;;;26.70;94.10;;;;;;5080280;28;20047;-89
2021/07/26 13:02:23;;;;;;;18.50;9.10;;;26.80;93.90;;;;;;5078997;28;20495;-90
2021/07/26 13:05:08;;;;;;;19.05;9.10;;;26.90;93.80;;;;;;5062234;28;20767;-89
2021/07/26 13:07:57;;;;;;;15.60;7.57;;;27.10;93.40;;;;;;5050518;28;20059;-88
2021/07/26 13:10:31;;;;;;;19.58;9.23;;;27.20;93.60;;;;;;5047235;28;20049;-88
2021/07/26 13:13:01;;;;;;;14.85;7.68;;;27.30;93.20;;;;;;5011924;28;20063;-90
2021/07/26 13:18:38;;;;;;;15.65;7.40;;;27.50;92.80;;;;;;5078745;28;20052;-81